sensor_id;sensor_type;location;lat;lon;timestamp;P1;durP1;ratioP1;P2;durP2;ratioP2
78322;SDS011;67583;50.616;-3.404;2023-07-02T00:02:22;19.17;;;7.25;;
78322;SDS011;67583;50.616;-3.404;2023-07-02T00:04:47;24.67;;;9.00;;
78322;SDS011;67583;50.616;-3.404;2023-07-02T00:07:13;24.13;;;8.52;;
78322;SDS011;67583;50.616;-3.404;2023-07-02T00:09:40;21.83;;;7.35;;
78322;SDS011;67583;50.616;-3.404;2023-07-02T00:12:05;20.27;;;7.50;;
78322;SDS011;67583;50.616;-3.404;2023-07-02T00:14:31;17.27;;;6.85;;
78322;SDS011;67583;50.616;-3.404;2023-07-02T00:16:57;25.15;;;9.45;;
78322;SDS011;67583;50.616;-3.404;2023-07-02T00:19:22;25.40;;;7.70;;
78322;SDS011;67583;50.616;-3.404;2023-07-02T00:21:48;22.25;;;7.90;;
78322;SDS011;67583;50.616;-3.404;2023-07-02T00:24:13;29.00;;;9.13;;
78322;SDS011;67583;50.616;-3.404;2023-07-02T00:26:41;18.02;;;6.65;;
78322;SDS011;67583;50.616;-3.404;2023-07-02T00:29:07;15.98;;;7.32;;
78322;SDS011;67583;50.616;-3.404;2023-07-02T00:31:34;17.83;;;7.63;;
78322;SDS011;67583;50.616;-3.404;2023-07-02T00:33:59;24.30;;;8.20;;
78322;SDS011;67583;50.616;-3.404;2023-07-02T00:36:29;20.75;;;6.57;;
78322;SDS011;67583;50.616;-3.404;2023-07-02T00:38:54;24.27;;;7.68;;
78322;SDS011;67583;50.616;-3.404;2023-07-02T00:41:20;23.52;;;7.13;;
78322;SDS011;67583;50.616;-3.404;2023-07-02T00:43:45;17.33;;;6.15;;
78322;SDS011;67583;50.616;-3.404;2023-07-02T00:46:14;17.13;;;6.90;;
78322;SDS011;67583;50.616;-3.404;2023-07-02T00:48:51;19.58;;;6.53;;
78322;SDS011;67583;50.616;-3.404;2023-07-02T00:51:19;20.95;;;6.93;;
78322;SDS011;67583;50.616;-3.404;2023-07-02T00:53:46;19.20;;;5.80;;
78322;SDS011;67583;50.616;-3.404;2023-07-02T00:56:12;20.48;;;7.03;;
78322;SDS011;67583;50.616;-3.404;2023-07-02T00:58:39;17.02;;;5.35;;
78322;SDS011;67583;50.616;-3.404;2023-07-02T01:01:06;18.95;;;5.88;;
78322;SDS011;67583;50.616;-3.404;2023-07-02T01:03:32;16.17;;;5.60;;
78322;SDS011;67583;50.616;-3.404;2023-07-02T01:06:00;15.13;;;5.10;;
78322;SDS011;67583;50.616;-3.404;2023-07-02T01:08:28;15.32;;;5.68;;
78322;SDS011;67583;50.616;-3.404;2023-07-02T01:10:54;23.83;;;6.30;;
78322;SDS011;67583;50.616;-3.404;2023-07-02T01:13:19;13.48;;;5.32;;
78322;SDS011;67583;50.616;-3.404;2023-07-02T01:15:46;14.98;;;5.05;;
78322;SDS011;67583;50.616;-3.404;2023-07-02T01:18:13;21.90;;;5.30;;
78322;SDS011;67583;50.616;-3.404;2023-07-02T01:20:39;12.57;;;5.35;;
78322;SDS011;67583;50.616;-3.404;2023-07-02T01:23:05;13.00;;;5.10;;
78322;SDS011;67583;50.616;-3.404;2023-07-02T01:25:30;12.00;;;4.72;;
78322;SDS011;67583;50.616;-3.404;2023-07-02T01:27:56;17.17;;;5.00;;
78322;SDS011;67583;50.616;-3.404;2023-07-02T01:30:23;19.25;;;5.18;;
78322;SDS011;67583;50.616;-3.404;2023-07-02T01:32:49;11.32;;;4.65;;
78322;SDS011;67583;50.616;-3.404;2023-07-02T01:35:15;13.07;;;4.68;;
78322;SDS011;67583;50.616;-3.404;2023-07-02T01:37:41;14.45;;;4.93;;
78322;SDS011;67583;50.616;-3.404;2023-07-02T01:40:06;10.60;;;4.68;;
78322;SDS011;67583;50.616;-3.404;2023-07-02T01:42:33;11.23;;;5.32;;
78322;SDS011;67583;50.616;-3.404;2023-07-02T01:44:58;8.82;;;4.18;;
78322;SDS011;67583;50.616;-3.404;2023-07-02T01:47:24;13.43;;;5.07;;
78322;SDS011;67583;50.616;-3.404;2023-07-02T01:49:49;11.23;;;4.85;;
78322;SDS011;67583;50.616;-3.404;2023-07-02T01:52:15;18.52;;;6.28;;
78322;SDS011;67583;50.616;-3.404;2023-07-02T01:54:41;16.90;;;5.60;;
78322;SDS011;67583;50.616;-3.404;2023-07-02T01:57:07;15.27;;;4.78;;
78322;SDS011;67583;50.616;-3.404;2023-07-02T01:59:32;10.73;;;4.25;;
78322;SDS011;67583;50.616;-3.404;2023-07-02T02:01:58;12.35;;;4.20;;
78322;SDS011;67583;50.616;-3.404;2023-07-02T02:04:23;15.25;;;5.63;;
78322;SDS011;67583;50.616;-3.404;2023-07-02T02:06:48;15.07;;;4.78;;
78322;SDS011;67583;50.616;-3.404;2023-07-02T02:09:14;13.07;;;4.32;;
78322;SDS011;67583;50.616;-3.404;2023-07-02T02:11:40;16.80;;;4.38;;
78322;SDS011;67583;50.616;-3.404;2023-07-02T02:14:07;10.98;;;4.53;;
78322;SDS011;67583;50.616;-3.404;2023-07-02T02:16:33;13.88;;;4.30;;
78322;SDS011;67583;50.616;-3.404;2023-07-02T02:18:59;10.80;;;4.10;;
78322;SDS011;67583;50.616;-3.404;2023-07-02T02:21:24;14.18;;;4.45;;
78322;SDS011;67583;50.616;-3.404;2023-07-02T02:23:50;15.52;;;4.60;;
78322;SDS011;67583;50.616;-3.404;2023-07-02T02:26:15;11.13;;;4.90;;
78322;SDS011;67583;50.616;-3.404;2023-07-02T02:28:41;14.30;;;4.15;;
78322;SDS011;67583;50.616;-3.404;2023-07-02T02:31:07;12.93;;;4.00;;
78322;SDS011;67583;50.616;-3.404;2023-07-02T02:33:32;13.93;;;4.45;;
78322;SDS011;67583;50.616;-3.404;2023-07-02T02:35:58;13.60;;;5.30;;
78322;SDS011;67583;50.616;-3.404;2023-07-02T02:38:24;21.35;;;5.72;;
78322;SDS011;67583;50.616;-3.404;2023-07-02T02:40:49;19.20;;;5.13;;
78322;SDS011;67583;50.616;-3.404;2023-07-02T02:43:14;14.50;;;4.38;;
78322;SDS011;67583;50.616;-3.404;2023-07-02T02:45:41;15.82;;;4.32;;
78322;SDS011;67583;50.616;-3.404;2023-07-02T02:48:07;16.02;;;5.05;;
78322;SDS011;67583;50.616;-3.404;2023-07-02T02:50:32;21.33;;;4.55;;
78322;SDS011;67583;50.616;-3.404;2023-07-02T02:52:58;10.38;;;3.80;;
78322;SDS011;67583;50.616;-3.404;2023-07-02T02:55:23;11.88;;;4.38;;
78322;SDS011;67583;50.616;-3.404;2023-07-02T02:57:48;12.63;;;4.82;;
78322;SDS011;67583;50.616;-3.404;2023-07-02T03:00:14;24.38;;;4.22;;
78322;SDS011;67583;50.616;-3.404;2023-07-02T03:02:39;13.07;;;3.72;;
78322;SDS011;67583;50.616;-3.404;2023-07-02T03:05:05;19.70;;;5.30;;
78322;SDS011;67583;50.616;-3.404;2023-07-02T03:07:31;12.52;;;4.18;;
78322;SDS011;67583;50.616;-3.404;2023-07-02T03:09:57;9.90;;;4.60;;
78322;SDS011;67583;50.616;-3.404;2023-07-02T03:12:22;11.90;;;4.18;;
78322;SDS011;67583;50.616;-3.404;2023-07-02T03:14:48;19.35;;;5.30;;
78322;SDS011;67583;50.616;-3.404;2023-07-02T03:17:18;13.95;;;4.30;;
78322;SDS011;67583;50.616;-3.404;2023-07-02T03:19:47;11.23;;;4.32;;
78322;SDS011;67583;50.616;-3.404;2023-07-02T03:22:12;11.55;;;3.97;;
78322;SDS011;67583;50.616;-3.404;2023-07-02T03:24:38;12.38;;;4.53;;
78322;SDS011;67583;50.616;-3.404;2023-07-02T03:27:03;11.95;;;4.35;;
78322;SDS011;67583;50.616;-3.404;2023-07-02T03:29:29;12.55;;;3.67;;
78322;SDS011;67583;50.616;-3.404;2023-07-02T03:31:54;10.85;;;3.92;;
78322;SDS011;67583;50.616;-3.404;2023-07-02T03:34:20;13.45;;;3.95;;
78322;SDS011;67583;50.616;-3.404;2023-07-02T03:36:47;11.77;;;3.67;;
78322;SDS011;67583;50.616;-3.404;2023-07-02T03:39:12;15.57;;;4.20;;
78322;SDS011;67583;50.616;-3.404;2023-07-02T03:41:38;14.40;;;4.00;;
78322;SDS011;67583;50.616;-3.404;2023-07-02T03:44:03;17.38;;;4.32;;
78322;SDS011;67583;50.616;-3.404;2023-07-02T03:46:29;11.00;;;4.40;;
78322;SDS011;67583;50.616;-3.404;2023-07-02T03:48:56;14.27;;;3.83;;
78322;SDS011;67583;50.616;-3.404;2023-07-02T03:51:21;13.18;;;4.55;;
78322;SDS011;67583;50.616;-3.404;2023-07-02T03:53:46;10.60;;;3.55;;
78322;SDS011;67583;50.616;-3.404;2023-07-02T03:56:12;11.05;;;3.97;;
78322;SDS011;67583;50.616;-3.404;2023-07-02T03:58:39;15.02;;;3.95;;
78322;SDS011;67583;50.616;-3.404;2023-07-02T04:01:04;13.18;;;4.50;;
78322;SDS011;67583;50.616;-3.404;2023-07-02T04:03:30;11.30;;;3.80;;
78322;SDS011;67583;50.616;-3.404;2023-07-02T04:05:55;10.65;;;4.43;;
78322;SDS011;67583;50.616;-3.404;2023-07-02T04:08:21;17.92;;;4.78;;
78322;SDS011;67583;50.616;-3.404;2023-07-02T04:10:47;8.57;;;3.70;;
78322;SDS011;67583;50.616;-3.404;2023-07-02T04:13:13;17.00;;;5.30;;
78322;SDS011;67583;50.616;-3.404;2023-07-02T04:15:39;12.85;;;4.45;;
78322;SDS011;67583;50.616;-3.404;2023-07-02T04:18:04;12.55;;;4.72;;
78322;SDS011;67583;50.616;-3.404;2023-07-02T04:20:30;12.48;;;3.75;;
78322;SDS011;67583;50.616;-3.404;2023-07-02T04:22:55;13.57;;;4.03;;
78322;SDS011;67583;50.616;-3.404;2023-07-02T04:25:21;13.05;;;4.40;;
78322;SDS011;67583;50.616;-3.404;2023-07-02T04:27:46;15.82;;;4.07;;
78322;SDS011;67583;50.616;-3.404;2023-07-02T04:30:12;10.52;;;4.93;;
78322;SDS011;67583;50.616;-3.404;2023-07-02T04:32:39;14.45;;;3.92;;
78322;SDS011;67583;50.616;-3.404;2023-07-02T04:35:05;13.02;;;4.03;;
78322;SDS011;67583;50.616;-3.404;2023-07-02T04:37:31;14.73;;;4.25;;
78322;SDS011;67583;50.616;-3.404;2023-07-02T04:39:56;16.52;;;4.88;;
78322;SDS011;67583;50.616;-3.404;2023-07-02T04:42:22;7.53;;;3.20;;
78322;SDS011;67583;50.616;-3.404;2023-07-02T04:44:52;8.73;;;3.63;;
78322;SDS011;67583;50.616;-3.404;2023-07-02T04:47:20;12.68;;;4.63;;
78322;SDS011;67583;50.616;-3.404;2023-07-02T04:49:46;11.43;;;3.83;;
78322;SDS011;67583;50.616;-3.404;2023-07-02T04:52:11;10.82;;;4.50;;
78322;SDS011;67583;50.616;-3.404;2023-07-02T04:54:36;11.00;;;4.93;;
78322;SDS011;67583;50.616;-3.404;2023-07-02T04:57:02;8.35;;;3.10;;
78322;SDS011;67583;50.616;-3.404;2023-07-02T04:59:28;6.00;;;2.95;;
78322;SDS011;67583;50.616;-3.404;2023-07-02T05:01:53;14.95;;;4.10;;
78322;SDS011;67583;50.616;-3.404;2023-07-02T05:04:18;8.80;;;3.20;;
78322;SDS011;67583;50.616;-3.404;2023-07-02T05:06:44;16.13;;;5.65;;
78322;SDS011;67583;50.616;-3.404;2023-07-02T05:09:09;13.82;;;3.92;;
78322;SDS011;67583;50.616;-3.404;2023-07-02T05:11:35;11.95;;;5.40;;
78322;SDS011;67583;50.616;-3.404;2023-07-02T05:14:00;15.85;;;3.78;;
78322;SDS011;67583;50.616;-3.404;2023-07-02T05:16:25;10.07;;;4.13;;
78322;SDS011;67583;50.616;-3.404;2023-07-02T05:18:51;15.77;;;4.47;;
78322;SDS011;67583;50.616;-3.404;2023-07-02T05:21:19;19.85;;;5.90;;
78322;SDS011;67583;50.616;-3.404;2023-07-02T05:23:45;12.35;;;4.13;;
78322;SDS011;67583;50.616;-3.404;2023-07-02T05:26:10;11.40;;;4.03;;
78322;SDS011;67583;50.616;-3.404;2023-07-02T05:28:36;12.00;;;4.13;;
78322;SDS011;67583;50.616;-3.404;2023-07-02T05:31:01;21.85;;;4.47;;
78322;SDS011;67583;50.616;-3.404;2023-07-02T05:33:26;15.43;;;4.65;;
78322;SDS011;67583;50.616;-3.404;2023-07-02T05:35:52;17.55;;;4.47;;
78322;SDS011;67583;50.616;-3.404;2023-07-02T05:38:18;10.70;;;3.70;;
78322;SDS011;67583;50.616;-3.404;2023-07-02T05:40:44;16.58;;;3.95;;
78322;SDS011;67583;50.616;-3.404;2023-07-02T05:43:10;9.15;;;3.65;;
78322;SDS011;67583;50.616;-3.404;2023-07-02T05:45:36;14.48;;;3.72;;
78322;SDS011;67583;50.616;-3.404;2023-07-02T05:48:01;9.27;;;3.45;;
78322;SDS011;67583;50.616;-3.404;2023-07-02T05:50:27;15.20;;;5.03;;
78322;SDS011;67583;50.616;-3.404;2023-07-02T05:52:52;10.55;;;4.15;;
78322;SDS011;67583;50.616;-3.404;2023-07-02T05:55:17;14.13;;;3.85;;
78322;SDS011;67583;50.616;-3.404;2023-07-02T05:57:43;23.23;;;5.03;;
78322;SDS011;67583;50.616;-3.404;2023-07-02T06:00:08;13.07;;;4.35;;
78322;SDS011;67583;50.616;-3.404;2023-07-02T06:02:34;13.60;;;3.92;;
78322;SDS011;67583;50.616;-3.404;2023-07-02T06:04:59;12.45;;;3.95;;
78322;SDS011;67583;50.616;-3.404;2023-07-02T06:07:26;7.70;;;3.85;;
78322;SDS011;67583;50.616;-3.404;2023-07-02T06:09:52;11.10;;;3.35;;
78322;SDS011;67583;50.616;-3.404;2023-07-02T06:12:17;10.52;;;3.90;;
78322;SDS011;67583;50.616;-3.404;2023-07-02T06:14:43;12.02;;;3.67;;
78322;SDS011;67583;50.616;-3.404;2023-07-02T06:17:08;12.20;;;3.88;;
78322;SDS011;67583;50.616;-3.404;2023-07-02T06:19:34;11.45;;;3.65;;
78322;SDS011;67583;50.616;-3.404;2023-07-02T06:22:00;10.40;;;3.75;;
78322;SDS011;67583;50.616;-3.404;2023-07-02T06:24:25;15.80;;;4.32;;
78322;SDS011;67583;50.616;-3.404;2023-07-02T06:26:51;12.05;;;3.50;;
78322;SDS011;67583;50.616;-3.404;2023-07-02T06:29:16;11.52;;;3.63;;
78322;SDS011;67583;50.616;-3.404;2023-07-02T06:31:42;15.18;;;4.30;;
78322;SDS011;67583;50.616;-3.404;2023-07-02T06:34:07;12.45;;;3.90;;
78322;SDS011;67583;50.616;-3.404;2023-07-02T06:36:33;11.60;;;4.00;;
78322;SDS011;67583;50.616;-3.404;2023-07-02T06:38:59;7.93;;;3.15;;
78322;SDS011;67583;50.616;-3.404;2023-07-02T06:41:25;15.13;;;4.05;;
78322;SDS011;67583;50.616;-3.404;2023-07-02T06:43:50;7.00;;;2.67;;
78322;SDS011;67583;50.616;-3.404;2023-07-02T06:46:15;9.85;;;3.08;;
78322;SDS011;67583;50.616;-3.404;2023-07-02T06:48:41;11.05;;;3.88;;
78322;SDS011;67583;50.616;-3.404;2023-07-02T06:51:06;16.88;;;4.53;;
78322;SDS011;67583;50.616;-3.404;2023-07-02T06:53:32;9.15;;;3.38;;
78322;SDS011;67583;50.616;-3.404;2023-07-02T06:55:58;14.23;;;3.97;;
78322;SDS011;67583;50.616;-3.404;2023-07-02T06:58:23;9.43;;;3.28;;
78322;SDS011;67583;50.616;-3.404;2023-07-02T07:00:49;15.52;;;5.00;;
78322;SDS011;67583;50.616;-3.404;2023-07-02T07:03:15;10.80;;;3.88;;
78322;SDS011;67583;50.616;-3.404;2023-07-02T07:05:41;11.43;;;3.45;;
78322;SDS011;67583;50.616;-3.404;2023-07-02T07:08:06;16.10;;;3.63;;
78322;SDS011;67583;50.616;-3.404;2023-07-02T07:10:31;15.32;;;3.60;;
78322;SDS011;67583;50.616;-3.404;2023-07-02T07:12:59;12.35;;;3.17;;
78322;SDS011;67583;50.616;-3.404;2023-07-02T07:15:26;9.85;;;3.17;;
78322;SDS011;67583;50.616;-3.404;2023-07-02T07:17:51;6.72;;;3.72;;
78322;SDS011;67583;50.616;-3.404;2023-07-02T07:20:17;12.60;;;3.90;;
78322;SDS011;67583;50.616;-3.404;2023-07-02T07:22:42;9.57;;;2.95;;
78322;SDS011;67583;50.616;-3.404;2023-07-02T07:25:08;16.13;;;4.15;;
78322;SDS011;67583;50.616;-3.404;2023-07-02T07:27:33;7.75;;;4.05;;
78322;SDS011;67583;50.616;-3.404;2023-07-02T07:29:59;8.90;;;3.53;;
78322;SDS011;67583;50.616;-3.404;2023-07-02T07:32:24;10.45;;;3.20;;
78322;SDS011;67583;50.616;-3.404;2023-07-02T07:34:49;13.82;;;3.85;;
78322;SDS011;67583;50.616;-3.404;2023-07-02T07:37:15;9.25;;;3.35;;
78322;SDS011;67583;50.616;-3.404;2023-07-02T07:39:41;10.65;;;3.33;;
78322;SDS011;67583;50.616;-3.404;2023-07-02T07:42:06;10.27;;;3.60;;
78322;SDS011;67583;50.616;-3.404;2023-07-02T07:44:32;7.60;;;3.83;;
78322;SDS011;67583;50.616;-3.404;2023-07-02T07:46:57;8.57;;;3.70;;
78322;SDS011;67583;50.616;-3.404;2023-07-02T07:49:22;12.75;;;3.25;;
78322;SDS011;67583;50.616;-3.404;2023-07-02T07:51:48;13.18;;;3.88;;
78322;SDS011;67583;50.616;-3.404;2023-07-02T07:54:14;11.38;;;3.33;;
78322;SDS011;67583;50.616;-3.404;2023-07-02T07:56:39;6.63;;;3.15;;
78322;SDS011;67583;50.616;-3.404;2023-07-02T07:59:04;13.27;;;3.33;;
78322;SDS011;67583;50.616;-3.404;2023-07-02T08:01:30;12.45;;;3.75;;
78322;SDS011;67583;50.616;-3.404;2023-07-02T08:03:55;8.32;;;2.78;;
78322;SDS011;67583;50.616;-3.404;2023-07-02T08:06:21;10.48;;;3.63;;
78322;SDS011;67583;50.616;-3.404;2023-07-02T08:08:46;9.75;;;3.50;;
78322;SDS011;67583;50.616;-3.404;2023-07-02T08:11:12;12.43;;;3.60;;
78322;SDS011;67583;50.616;-3.404;2023-07-02T08:13:37;9.55;;;3.00;;
78322;SDS011;67583;50.616;-3.404;2023-07-02T08:16:02;9.98;;;3.08;;
78322;SDS011;67583;50.616;-3.404;2023-07-02T08:18:28;10.32;;;3.80;;
78322;SDS011;67583;50.616;-3.404;2023-07-02T08:20:53;8.52;;;2.92;;
78322;SDS011;67583;50.616;-3.404;2023-07-02T08:23:19;10.65;;;3.17;;
78322;SDS011;67583;50.616;-3.404;2023-07-02T08:25:44;11.63;;;3.65;;
78322;SDS011;67583;50.616;-3.404;2023-07-02T08:28:09;13.80;;;4.30;;
78322;SDS011;67583;50.616;-3.404;2023-07-02T08:30:35;7.68;;;3.17;;
78322;SDS011;67583;50.616;-3.404;2023-07-02T08:33:01;13.07;;;4.03;;
78322;SDS011;67583;50.616;-3.404;2023-07-02T08:35:26;11.55;;;2.88;;
78322;SDS011;67583;50.616;-3.404;2023-07-02T08:37:52;12.35;;;3.28;;
78322;SDS011;67583;50.616;-3.404;2023-07-02T08:40:20;9.95;;;3.08;;
78322;SDS011;67583;50.616;-3.404;2023-07-02T08:42:46;9.50;;;2.88;;
78322;SDS011;67583;50.616;-3.404;2023-07-02T08:45:13;10.45;;;2.92;;
78322;SDS011;67583;50.616;-3.404;2023-07-02T08:47:42;7.93;;;3.50;;
78322;SDS011;67583;50.616;-3.404;2023-07-02T08:50:08;12.43;;;3.17;;
78322;SDS011;67583;50.616;-3.404;2023-07-02T08:52:34;9.95;;;3.40;;
78322;SDS011;67583;50.616;-3.404;2023-07-02T08:54:59;9.80;;;4.63;;
78322;SDS011;67583;50.616;-3.404;2023-07-02T08:57:25;9.20;;;3.78;;
78322;SDS011;67583;50.616;-3.404;2023-07-02T08:59:50;11.32;;;4.07;;
78322;SDS011;67583;50.616;-3.404;2023-07-02T09:02:16;10.82;;;2.92;;
78322;SDS011;67583;50.616;-3.404;2023-07-02T09:04:42;8.68;;;3.63;;
78322;SDS011;67583;50.616;-3.404;2023-07-02T09:07:08;9.85;;;3.00;;
78322;SDS011;67583;50.616;-3.404;2023-07-02T09:09:47;10.38;;;2.80;;
78322;SDS011;67583;50.616;-3.404;2023-07-02T09:12:24;7.43;;;2.67;;
78322;SDS011;67583;50.616;-3.404;2023-07-02T09:17:26;10.52;;;2.88;;
78322;SDS011;67583;50.616;-3.404;2023-07-02T09:19:55;12.93;;;2.55;;
78322;SDS011;67583;50.616;-3.404;2023-07-02T09:22:21;8.95;;;3.20;;
78322;SDS011;67583;50.616;-3.404;2023-07-02T09:24:53;10.02;;;3.50;;
78322;SDS011;67583;50.616;-3.404;2023-07-02T09:27:19;13.35;;;2.70;;
78322;SDS011;67583;50.616;-3.404;2023-07-02T09:29:49;8.30;;;3.72;;
78322;SDS011;67583;50.616;-3.404;2023-07-02T09:32:23;12.38;;;3.20;;
78322;SDS011;67583;50.616;-3.404;2023-07-02T09:34:49;8.00;;;2.80;;
78322;SDS011;67583;50.616;-3.404;2023-07-02T09:37:14;10.95;;;3.03;;
78322;SDS011;67583;50.616;-3.404;2023-07-02T09:39:40;9.80;;;3.35;;
78322;SDS011;67583;50.616;-3.404;2023-07-02T09:42:06;7.78;;;3.47;;
78322;SDS011;67583;50.616;-3.404;2023-07-02T09:44:33;12.77;;;4.00;;
78322;SDS011;67583;50.616;-3.404;2023-07-02T09:49:31;14.75;;;3.20;;
78322;SDS011;67583;50.616;-3.404;2023-07-02T09:52:02;9.30;;;4.40;;
78322;SDS011;67583;50.616;-3.404;2023-07-02T09:54:29;12.95;;;3.50;;
78322;SDS011;67583;50.616;-3.404;2023-07-02T09:56:56;10.88;;;3.47;;
78322;SDS011;67583;50.616;-3.404;2023-07-02T09:59:22;13.30;;;3.75;;
78322;SDS011;67583;50.616;-3.404;2023-07-02T10:01:47;16.02;;;3.05;;
78322;SDS011;67583;50.616;-3.404;2023-07-02T10:04:16;9.13;;;4.07;;
78322;SDS011;67583;50.616;-3.404;2023-07-02T10:06:49;9.85;;;3.50;;
78322;SDS011;67583;50.616;-3.404;2023-07-02T10:09:20;9.77;;;3.92;;
78322;SDS011;67583;50.616;-3.404;2023-07-02T10:11:46;10.70;;;2.67;;
78322;SDS011;67583;50.616;-3.404;2023-07-02T10:14:12;7.45;;;3.03;;
78322;SDS011;67583;50.616;-3.404;2023-07-02T10:16:50;9.40;;;3.30;;
78322;SDS011;67583;50.616;-3.404;2023-07-02T10:19:16;14.52;;;3.75;;
78322;SDS011;67583;50.616;-3.404;2023-07-02T10:21:41;11.15;;;3.40;;
78322;SDS011;67583;50.616;-3.404;2023-07-02T10:24:13;14.63;;;3.10;;
78322;SDS011;67583;50.616;-3.404;2023-07-02T10:29:19;15.80;;;4.35;;
78322;SDS011;67583;50.616;-3.404;2023-07-02T10:31:49;17.73;;;3.75;;
78322;SDS011;67583;50.616;-3.404;2023-07-02T10:34:33;13.10;;;3.22;;
78322;SDS011;67583;50.616;-3.404;2023-07-02T10:37:00;13.02;;;3.90;;
78322;SDS011;67583;50.616;-3.404;2023-07-02T10:39:26;12.25;;;3.75;;
78322;SDS011;67583;50.616;-3.404;2023-07-02T10:41:51;12.18;;;3.97;;
78322;SDS011;67583;50.616;-3.404;2023-07-02T10:44:17;14.65;;;4.57;;
78322;SDS011;67583;50.616;-3.404;2023-07-02T10:46:43;11.80;;;3.55;;
78322;SDS011;67583;50.616;-3.404;2023-07-02T10:49:11;10.98;;;3.30;;
78322;SDS011;67583;50.616;-3.404;2023-07-02T10:51:37;10.70;;;3.38;;
78322;SDS011;67583;50.616;-3.404;2023-07-02T10:54:03;13.73;;;3.17;;
78322;SDS011;67583;50.616;-3.404;2023-07-02T10:56:30;7.82;;;3.17;;
78322;SDS011;67583;50.616;-3.404;2023-07-02T10:58:56;8.35;;;2.75;;
78322;SDS011;67583;50.616;-3.404;2023-07-02T11:01:26;17.35;;;3.88;;
78322;SDS011;67583;50.616;-3.404;2023-07-02T11:06:27;10.80;;;3.50;;
78322;SDS011;67583;50.616;-3.404;2023-07-02T11:08:57;10.38;;;3.38;;
78322;SDS011;67583;50.616;-3.404;2023-07-02T11:11:23;8.13;;;3.17;;
78322;SDS011;67583;50.616;-3.404;2023-07-02T11:13:49;11.02;;;3.20;;
78322;SDS011;67583;50.616;-3.404;2023-07-02T11:16:22;7.53;;;2.97;;
78322;SDS011;67583;50.616;-3.404;2023-07-02T11:18:54;8.63;;;2.80;;
78322;SDS011;67583;50.616;-3.404;2023-07-02T11:21:31;12.98;;;3.53;;
78322;SDS011;67583;50.616;-3.404;2023-07-02T11:24:03;16.98;;;3.35;;
78322;SDS011;67583;50.616;-3.404;2023-07-02T11:26:36;14.95;;;3.30;;
78322;SDS011;67583;50.616;-3.404;2023-07-02T11:29:02;16.30;;;4.18;;
78322;SDS011;67583;50.616;-3.404;2023-07-02T11:31:28;10.25;;;3.50;;
78322;SDS011;67583;50.616;-3.404;2023-07-02T11:33:53;9.48;;;2.78;;
78322;SDS011;67583;50.616;-3.404;2023-07-02T11:36:20;9.07;;;3.05;;
78322;SDS011;67583;50.616;-3.404;2023-07-02T11:38:49;11.70;;;3.97;;
78322;SDS011;67583;50.616;-3.404;2023-07-02T11:41:15;8.75;;;3.13;;
78322;SDS011;67583;50.616;-3.404;2023-07-02T11:43:41;12.57;;;3.53;;
78322;SDS011;67583;50.616;-3.404;2023-07-02T11:46:06;8.07;;;2.50;;
78322;SDS011;67583;50.616;-3.404;2023-07-02T11:48:32;10.95;;;3.30;;
78322;SDS011;67583;50.616;-3.404;2023-07-02T11:50:58;9.48;;;3.10;;
78322;SDS011;67583;50.616;-3.404;2023-07-02T11:53:24;11.05;;;3.60;;
78322;SDS011;67583;50.616;-3.404;2023-07-02T11:55:50;7.95;;;2.70;;
78322;SDS011;67583;50.616;-3.404;2023-07-02T11:58:15;8.60;;;2.88;;
78322;SDS011;67583;50.616;-3.404;2023-07-02T12:00:40;9.07;;;3.13;;
78322;SDS011;67583;50.616;-3.404;2023-07-02T12:03:06;8.82;;;2.30;;
78322;SDS011;67583;50.616;-3.404;2023-07-02T12:05:31;8.70;;;3.08;;
78322;SDS011;67583;50.616;-3.404;2023-07-02T12:07:57;9.10;;;2.53;;
78322;SDS011;67583;50.616;-3.404;2023-07-02T12:10:22;9.35;;;2.97;;
78322;SDS011;67583;50.616;-3.404;2023-07-02T12:12:47;8.98;;;3.13;;
78322;SDS011;67583;50.616;-3.404;2023-07-02T12:15:13;15.82;;;3.67;;
78322;SDS011;67583;50.616;-3.404;2023-07-02T12:17:39;12.25;;;3.58;;
78322;SDS011;67583;50.616;-3.404;2023-07-02T12:20:05;13.82;;;3.33;;
78322;SDS011;67583;50.616;-3.404;2023-07-02T12:22:32;5.35;;;3.05;;
78322;SDS011;67583;50.616;-3.404;2023-07-02T12:24:57;11.00;;;4.43;;
78322;SDS011;67583;50.616;-3.404;2023-07-02T12:27:23;11.52;;;3.25;;
78322;SDS011;67583;50.616;-3.404;2023-07-02T12:29:50;11.80;;;3.35;;
78322;SDS011;67583;50.616;-3.404;2023-07-02T12:32:15;8.82;;;3.15;;
78322;SDS011;67583;50.616;-3.404;2023-07-02T12:34:41;13.27;;;3.22;;
78322;SDS011;67583;50.616;-3.404;2023-07-02T12:37:06;9.73;;;3.25;;
78322;SDS011;67583;50.616;-3.404;2023-07-02T12:39:31;13.20;;;3.45;;
78322;SDS011;67583;50.616;-3.404;2023-07-02T12:41:57;10.82;;;3.10;;
78322;SDS011;67583;50.616;-3.404;2023-07-02T12:44:22;9.95;;;2.70;;
78322;SDS011;67583;50.616;-3.404;2023-07-02T12:46:48;7.93;;;3.10;;
78322;SDS011;67583;50.616;-3.404;2023-07-02T12:49:13;15.32;;;3.65;;
78322;SDS011;67583;50.616;-3.404;2023-07-02T12:51:38;9.68;;;3.03;;
78322;SDS011;67583;50.616;-3.404;2023-07-02T12:54:04;11.90;;;2.60;;
78322;SDS011;67583;50.616;-3.404;2023-07-02T12:56:29;8.10;;;2.78;;
78322;SDS011;67583;50.616;-3.404;2023-07-02T12:58:54;12.05;;;3.60;;
78322;SDS011;67583;50.616;-3.404;2023-07-02T13:01:20;7.25;;;2.60;;
78322;SDS011;67583;50.616;-3.404;2023-07-02T13:03:46;7.05;;;3.05;;
78322;SDS011;67583;50.616;-3.404;2023-07-02T13:06:12;10.13;;;3.30;;
78322;SDS011;67583;50.616;-3.404;2023-07-02T13:08:38;8.38;;;2.50;;
78322;SDS011;67583;50.616;-3.404;2023-07-02T13:11:03;10.45;;;3.50;;
78322;SDS011;67583;50.616;-3.404;2023-07-02T13:13:29;8.65;;;3.63;;
78322;SDS011;67583;50.616;-3.404;2023-07-02T13:15:54;6.53;;;2.45;;
78322;SDS011;67583;50.616;-3.404;2023-07-02T13:18:19;10.82;;;3.20;;
78322;SDS011;67583;50.616;-3.404;2023-07-02T13:20:45;10.57;;;2.97;;
78322;SDS011;67583;50.616;-3.404;2023-07-02T13:23:11;5.63;;;2.65;;
78322;SDS011;67583;50.616;-3.404;2023-07-02T13:25:37;7.63;;;2.72;;
78322;SDS011;67583;50.616;-3.404;2023-07-02T13:28:02;8.43;;;3.53;;
78322;SDS011;67583;50.616;-3.404;2023-07-02T13:30:27;8.05;;;3.20;;
78322;SDS011;67583;50.616;-3.404;2023-07-02T13:32:56;6.13;;;2.85;;
78322;SDS011;67583;50.616;-3.404;2023-07-02T13:35:22;14.30;;;3.05;;
78322;SDS011;67583;50.616;-3.404;2023-07-02T13:37:47;8.13;;;2.80;;
78322;SDS011;67583;50.616;-3.404;2023-07-02T13:40:13;7.78;;;2.50;;
78322;SDS011;67583;50.616;-3.404;2023-07-02T13:42:40;7.57;;;3.08;;
78322;SDS011;67583;50.616;-3.404;2023-07-02T13:45:07;8.43;;;3.08;;
78322;SDS011;67583;50.616;-3.404;2023-07-02T13:47:33;4.47;;;2.13;;
78322;SDS011;67583;50.616;-3.404;2023-07-02T13:49:59;9.13;;;2.72;;
78322;SDS011;67583;50.616;-3.404;2023-07-02T13:52:24;6.15;;;2.92;;
78322;SDS011;67583;50.616;-3.404;2023-07-02T13:54:50;5.63;;;2.60;;
78322;SDS011;67583;50.616;-3.404;2023-07-02T13:57:15;11.80;;;3.65;;
78322;SDS011;67583;50.616;-3.404;2023-07-02T13:59:41;7.88;;;3.20;;
78322;SDS011;67583;50.616;-3.404;2023-07-02T14:02:06;10.55;;;2.78;;
78322;SDS011;67583;50.616;-3.404;2023-07-02T14:04:32;9.93;;;2.67;;
78322;SDS011;67583;50.616;-3.404;2023-07-02T14:06:57;9.60;;;2.97;;
78322;SDS011;67583;50.616;-3.404;2023-07-02T14:09:23;11.52;;;3.17;;
78322;SDS011;67583;50.616;-3.404;2023-07-02T14:11:48;10.73;;;3.20;;
78322;SDS011;67583;50.616;-3.404;2023-07-02T14:14:13;6.57;;;2.78;;
78322;SDS011;67583;50.616;-3.404;2023-07-02T14:16:39;11.27;;;3.03;;
78322;SDS011;67583;50.616;-3.404;2023-07-02T14:19:06;10.00;;;3.28;;
78322;SDS011;67583;50.616;-3.404;2023-07-02T14:21:31;9.40;;;2.97;;
78322;SDS011;67583;50.616;-3.404;2023-07-02T14:23:57;7.15;;;3.00;;
78322;SDS011;67583;50.616;-3.404;2023-07-02T14:26:23;6.50;;;2.47;;
78322;SDS011;67583;50.616;-3.404;2023-07-02T14:28:50;8.75;;;3.17;;
78322;SDS011;67583;50.616;-3.404;2023-07-02T14:31:15;12.55;;;2.97;;